Medford, OR (97501)

2:56 PM PST on December 08, 2016 (GMT -0800)
Southwest Medford (CW2551) | | Change Station

Elev 1472 ft 42.31 °N, 122.90 °W | Updated 2 seconds ago

Mostly Cloudy
Mostly Cloudy
47.7 °F
Feels Like 46 °F
N
4.0
Wind Variable Wind from NW
Gusts 4.0 mph

Today
High -- | Low -- °F
--% Chance of Precip.
Yesterday
High -- | Low -- °F
Precip. -- in
Pressure 29.90 in
Visibility 10.0 miles
Clouds Mostly Cloudy 7000 ft
Windchill 46 °F
Dew Point 40 °F
Humidity 76%
Rainfall 0.04 in
Snow Depth Not available.
7:28 AM 4:38 PM
Waxing Gibbous, 67% visible
METAR KMFR 082253Z 36005KT 10SM BKN070 08/05 A2988 RMK AO2 SLP123 T00830050
Pressure 29.90 in
Visibility 10.0 miles
Clouds Mostly Cloudy 7000 ft
Windchill 46 °F
Dew Point 40 °F
Humidity 76%
Rainfall 0.04 in
Snow Depth Not available.
7:28 AM 4:38 PM
Waxing Gibbous, 67% visible
METAR KMFR 082253Z 36005KT 10SM BKN070 08/05 A2988 RMK AO2 SLP123 T00830050

10-Day Weather Forecast

Almanac

Astronomy

Dec. 08, 2016 Rise Set
Actual Time
Civil Twilight
Nautical Twilight
Astronomical Twilight
Moon
Length of Visible Light
Length of Day
Tomorrow will be .
, % of the Moon is Illuminated

Today's Extremes

State Highs State Lows

Community

WunderPhotos

Upload Photos

1,956,277 photos uploaded!

WunderBlog® & News

Nearby

Air Quality

  Air Quality AQ Index Pollutant
Not available.

Snow Depth

Station Depth Elevation

Earthquake Activity

City Distance Mag. Time & Date
Minimum magnitude displayed is 2.5.

Coastal Water Temperatures

Place Temperature

Stations

Nearby Weather Stations

Station Location Temp. Windchill Dew Point Humidity Wind Precip. Elev Updated Type
                   

Watches & Warnings

There are currently no watches in effect.